createdAt,value
2023-11-30T00:04:47.859Z,52.62
2023-11-30T00:09:49.928Z,52.25
2023-11-30T00:14:54.682Z,52.56
2023-11-30T00:19:59.621Z,52.82
2023-11-30T00:25:01.980Z,52.79
2023-11-30T00:30:04.437Z,52.57
2023-11-30T00:35:07.072Z,52.67
2023-11-30T00:40:09.879Z,52.50
2023-11-30T00:45:12.125Z,52.32
2023-11-30T00:50:14.047Z,52.75
2023-11-30T00:55:16.001Z,52.07
2023-11-30T01:00:18.303Z,52.25
2023-11-30T01:05:20.326Z,52.58
2023-11-30T01:10:22.428Z,52.98
2023-11-30T01:15:24.471Z,52.80
2023-11-30T01:20:26.441Z,52.21
2023-11-30T01:25:28.381Z,52.48
2023-11-30T01:30:30.397Z,53.15
2023-11-30T01:35:32.599Z,53.44
2023-11-30T01:40:34.475Z,53.49
2023-11-30T01:45:39.055Z,53.14
2023-11-30T01:50:41.554Z,53.54
2023-11-30T01:55:43.535Z,53.34
2023-11-30T02:00:46.077Z,53.39
2023-11-30T02:05:52.704Z,52.67
2023-11-30T02:10:54.857Z,52.29
2023-11-30T02:15:56.731Z,51.92
2023-11-30T02:21:01.567Z,52.39
2023-11-30T02:26:03.352Z,52.44
2023-11-30T02:31:07.846Z,51.95
2023-11-30T02:36:13.843Z,52.38
2023-11-30T02:41:18.251Z,53.26
2023-11-30T02:46:22.686Z,53.40
2023-11-30T02:51:24.765Z,53.65
2023-11-30T02:56:26.699Z,53.41
2023-11-30T03:01:28.594Z,53.32
2023-11-30T03:06:30.487Z,54.21
2023-11-30T03:11:32.452Z,54.00
2023-11-30T03:16:34.306Z,54.41
2023-11-30T03:21:36.257Z,54.16
2023-11-30T03:26:38.228Z,54.37
2023-11-30T03:31:42.825Z,54.81
2023-11-30T03:36:47.200Z,54.76
2023-11-30T03:41:49.104Z,54.94
2023-11-30T03:46:50.947Z,55.26
2023-11-30T03:51:54.963Z,55.40
2023-11-30T03:56:57.096Z,54.83
2023-11-30T04:01:59.108Z,55.09
2023-11-30T04:07:00.930Z,55.08
2023-11-30T04:12:02.853Z,55.49
2023-11-30T04:17:05.023Z,55.66
2023-11-30T04:22:09.590Z,55.47
2023-11-30T04:27:11.742Z,55.54
2023-11-30T04:32:13.700Z,55.44
2023-11-30T04:37:15.324Z,55.53
2023-11-30T04:42:17.544Z,55.65
2023-11-30T04:47:19.622Z,55.59
2023-11-30T04:52:23.605Z,55.59
2023-11-30T04:57:25.640Z,55.13
2023-11-30T05:02:27.528Z,55.42
2023-11-30T05:07:29.525Z,55.67
2023-11-30T05:12:31.373Z,55.39
2023-11-30T05:17:34.246Z,55.69
2023-11-30T05:22:36.101Z,55.66
2023-11-30T05:27:37.936Z,55.45
2023-11-30T05:32:42.547Z,55.01
2023-11-30T05:37:46.874Z,56.21
2023-11-30T05:42:49.096Z,55.80
2023-11-30T05:47:53.923Z,56.05
2023-11-30T05:52:55.755Z,55.92
2023-11-30T05:57:57.915Z,55.86
2023-11-30T06:02:59.844Z,55.58
2023-11-30T06:08:04.201Z,55.50
2023-11-30T06:13:08.593Z,56.72
2023-11-30T06:18:10.576Z,55.69
2023-11-30T06:23:12.412Z,56.25
2023-11-30T06:28:14.212Z,55.73
2023-11-30T06:33:16.177Z,55.79
2023-11-30T06:38:18.373Z,56.18
2023-11-30T06:43:20.347Z,55.82
2023-11-30T06:48:24.783Z,55.41
2023-11-30T06:53:26.802Z,56.17
2023-11-30T06:58:30.758Z,55.57
2023-11-30T07:03:42.524Z,55.44
2023-11-30T07:08:47.828Z,55.95
2023-11-30T07:13:49.642Z,56.13
2023-11-30T07:18:53.134Z,55.87
2023-11-30T07:23:56.000Z,55.79
2023-11-30T07:28:57.905Z,55.49
2023-11-30T07:34:00.177Z,55.73
2023-11-30T07:39:02.233Z,55.79
2023-11-30T07:44:06.708Z,55.64
2023-11-30T07:49:08.718Z,55.45
2023-11-30T07:54:10.687Z,55.97
2023-11-30T07:59:14.003Z,55.36
2023-11-30T08:04:16.324Z,55.58
2023-11-30T08:09:18.321Z,55.86
2023-11-30T08:33:02.853Z,55.57
2023-11-30T08:38:05.770Z,55.10
2023-11-30T08:43:07.645Z,55.41
2023-11-30T08:48:11.782Z,54.85
2023-11-30T08:53:13.817Z,54.82
2023-11-30T08:58:15.840Z,55.55
2023-11-30T09:03:20.734Z,55.09
2023-11-30T09:08:22.966Z,55.30
2023-11-30T09:13:25.098Z,54.84
2023-11-30T09:18:27.151Z,54.91
2023-11-30T09:23:31.033Z,54.86
2023-11-30T09:28:33.408Z,54.95
2023-11-30T09:33:35.347Z,54.02
2023-11-30T09:38:37.370Z,54.64
2023-11-30T09:43:39.350Z,55.69
2023-11-30T09:48:43.987Z,55.62
2023-11-30T09:53:48.219Z,55.30
2023-11-30T09:58:50.041Z,54.71
2023-11-30T10:03:53.007Z,54.34
2023-11-30T10:09:03.362Z,55.12
2023-11-30T10:14:05.419Z,54.12
2023-11-30T10:19:08.760Z,54.30
2023-11-30T10:24:11.380Z,54.56
2023-11-30T10:29:18.380Z,53.61
2023-11-30T10:34:28.841Z,53.86
2023-11-30T10:39:39.820Z,53.47
2023-11-30T10:44:45.626Z,53.75
2023-11-30T10:49:50.383Z,53.04
2023-11-30T10:55:10.593Z,52.73
2023-11-30T11:00:18.255Z,53.24
2023-11-30T11:05:22.256Z,52.70
2023-11-30T11:10:28.813Z,52.77
2023-11-30T11:15:34.140Z,52.85
2023-11-30T11:20:38.193Z,52.64
2023-11-30T11:25:40.863Z,52.59
2023-11-30T11:30:49.122Z,52.53
2023-11-30T11:35:51.629Z,52.49
2023-11-30T11:40:55.343Z,52.67
2023-11-30T11:45:57.752Z,52.38
2023-11-30T11:51:00.545Z,52.22
2023-11-30T11:56:04.619Z,51.69
2023-11-30T12:01:07.042Z,52.47
2023-11-30T12:06:12.644Z,52.60
2023-11-30T12:11:14.788Z,52.44
2023-11-30T12:16:16.912Z,51.61
2023-11-30T12:21:22.858Z,51.62
2023-11-30T12:26:24.804Z,50.91
2023-11-30T12:31:27.237Z,51.20
2023-11-30T12:36:29.317Z,51.21
2023-11-30T12:41:31.914Z,50.99
2023-11-30T12:46:36.153Z,50.54
2023-11-30T12:51:40.695Z,50.94
2023-11-30T12:56:48.133Z,49.83
2023-11-30T13:01:52.873Z,50.00
2023-11-30T13:06:55.659Z,49.50
2023-11-30T13:12:00.074Z,49.46
2023-11-30T13:17:02.491Z,49.11
2023-11-30T13:22:06.235Z,48.83
2023-11-30T13:27:08.673Z,48.75
2023-11-30T13:37:13.401Z,48.39
2023-11-30T13:42:17.760Z,48.82
2023-11-30T13:47:21.143Z,48.28
2023-11-30T13:52:25.874Z,48.57
2023-11-30T13:57:28.105Z,47.76
2023-11-30T14:02:30.225Z,48.15
2023-11-30T14:07:34.584Z,47.91
2023-11-30T14:12:37.265Z,47.29
2023-11-30T14:17:40.127Z,47.24
2023-11-30T14:22:42.542Z,47.13
2023-11-30T14:27:45.497Z,47.41
2023-11-30T14:32:55.013Z,47.13
2023-11-30T14:37:57.039Z,47.12
2023-11-30T14:43:01.294Z,47.37
2023-11-30T14:48:03.470Z,47.63
2023-11-30T14:53:12.179Z,47.23
2023-11-30T14:58:14.811Z,47.25
2023-11-30T15:03:19.970Z,47.32
2023-11-30T15:08:22.362Z,47.22
2023-11-30T15:13:25.866Z,47.06
2023-11-30T15:18:28.888Z,47.32
2023-11-30T15:23:31.668Z,47.60
2023-11-30T15:28:33.892Z,47.09
2023-11-30T15:33:36.546Z,47.51
2023-11-30T15:38:40.582Z,46.87
2023-11-30T15:43:55.055Z,47.12
2023-11-30T15:48:57.346Z,47.13
2023-11-30T15:53:59.551Z,47.02
2023-11-30T15:59:02.064Z,47.36
2023-11-30T16:04:04.569Z,46.89
2023-11-30T16:09:07.330Z,46.73
2023-11-30T16:14:11.184Z,46.29
2023-11-30T16:19:13.283Z,46.98
2023-11-30T16:24:17.857Z,47.00
2023-11-30T16:35:23.735Z,47.22
2023-11-30T16:40:25.794Z,46.89
2023-11-30T16:45:28.983Z,47.26
2023-11-30T16:50:31.630Z,47.45
2023-11-30T16:55:38.509Z,48.00
2023-11-30T17:00:40.684Z,47.85
2023-11-30T17:05:42.733Z,48.44
2023-11-30T17:10:46.354Z,48.93
2023-11-30T17:15:49.118Z,49.13
2023-11-30T17:20:53.101Z,49.00
2023-11-30T17:25:55.033Z,49.86
2023-11-30T17:30:59.292Z,49.71
2023-11-30T17:36:01.352Z,50.10
2023-11-30T17:41:03.235Z,50.07
2023-11-30T17:46:09.676Z,50.11
2023-11-30T17:51:18.817Z,49.80
2023-11-30T17:56:21.507Z,49.87
2023-11-30T18:01:25.900Z,50.35
2023-11-30T18:06:33.533Z,50.58
2023-11-30T18:11:35.555Z,50.45
2023-11-30T18:16:37.790Z,50.34
2023-11-30T18:21:39.739Z,50.63
2023-11-30T18:26:43.755Z,51.25
2023-11-30T18:31:45.602Z,51.06
2023-11-30T18:36:47.778Z,51.33
2023-11-30T18:41:52.433Z,50.60
2023-11-30T18:46:56.906Z,51.11
2023-11-30T18:51:58.854Z,50.92
2023-11-30T18:57:01.602Z,51.30
2023-11-30T19:02:07.123Z,51.63
2023-11-30T20:08:52.600Z,52.87
2023-11-30T20:31:17.795Z,53.01
2023-11-30T20:36:20.001Z,53.58
2023-11-30T20:41:22.550Z,53.31
2023-11-30T20:46:24.550Z,53.36
2023-11-30T20:51:28.962Z,53.22
2023-11-30T20:56:30.788Z,53.01
2023-11-30T21:01:32.849Z,53.83
2023-11-30T21:06:38.107Z,53.88
2023-11-30T21:11:40.093Z,53.96
2023-11-30T21:16:41.950Z,54.12
2023-11-30T21:32:38.051Z,53.84
2023-11-30T21:37:39.888Z,54.39
2023-11-30T21:42:42.029Z,54.25
2023-11-30T21:47:43.949Z,54.29
2023-11-30T21:52:48.175Z,54.81
2023-11-30T21:57:57.214Z,54.63
2023-11-30T22:03:00.390Z,54.04
2023-11-30T22:08:02.583Z,54.29
2023-11-30T22:13:04.550Z,54.60
2023-11-30T22:18:06.479Z,54.29
2023-11-30T22:23:08.224Z,54.02
2023-11-30T22:28:10.125Z,54.01
2023-11-30T22:33:12.097Z,54.04
2023-11-30T22:38:14.013Z,53.91
2023-11-30T22:43:15.930Z,53.74
2023-11-30T22:48:17.766Z,53.75
2023-11-30T22:53:19.606Z,54.05
2023-11-30T22:58:21.463Z,54.34
2023-11-30T23:03:23.969Z,54.56
2023-11-30T23:08:28.254Z,53.94
2023-11-30T23:13:30.080Z,54.38
2023-11-30T23:18:31.951Z,53.93
2023-11-30T23:23:33.953Z,53.67
2023-11-30T23:28:36.011Z,54.38
2023-11-30T23:33:38.029Z,54.00
2023-11-30T23:38:39.989Z,54.11
2023-11-30T23:43:41.848Z,54.48
2023-11-30T23:48:43.848Z,54.38
2023-11-30T23:53:47.882Z,54.55
2023-11-30T23:58:49.781Z,54.92
